Time;durP1;ratioP1;P1;durP2;ratioP2;P2;SDS_P1;SDS_P2;PMS_P1;PMS_P2;Temp;Humidity;BMP_temperature;BMP_pressure;BME280_temperature;BME280_humidity;BME280_pressure;Samples;Min_cycle;Max_cycle;Signal;HPM_P1;HPM_P2
2022/05/31 00:02:50;;;;;;;;;;;23.20;40.40;;;;;;6341141;27;19927;-67
2022/05/31 00:05:51;;;;;;;;;;;23.00;40.20;;;;;;6343411;27;19927;-54
2022/05/31 00:08:53;;;;;;;;;;;23.40;40.50;;;;;;6362538;27;19922;-56
2022/05/31 00:11:55;;;;;;;;;;;23.50;40.30;;;;;;6363012;27;20016;-54
2022/05/31 00:14:57;;;;;;;;;;;23.30;40.30;;;;;;6358782;27;19927;-53
2022/05/31 00:17:59;;;;;;;;;;;23.70;40.60;;;;;;6359405;27;20910;-57
2022/05/31 00:21:00;;;;;;;;;;;23.10;40.30;;;;;;6360036;27;20037;-56
2022/05/31 00:24:01;;;;;;;;;;;23.10;40.30;;;;;;6363601;27;19965;-53
2022/05/31 00:27:04;;;;;;;;;;;23.30;40.50;;;;;;6362463;27;20025;-57
2022/05/31 00:30:06;;;;;;;;;;;23.30;40.30;;;;;;6359389;27;19951;-56
2022/05/31 00:33:10;;;;;;;;;;;23.20;40.10;;;;;;6360085;27;19938;-58
2022/05/31 00:36:11;;;;;;;;;;;23.30;40.40;;;;;;6357232;27;19927;-55
2022/05/31 00:39:13;;;;;;;;;;;23.20;40.40;;;;;;6361071;27;19923;-55
2022/05/31 00:42:16;;;;;;;;;;;23.20;40.30;;;;;;6357940;27;20829;-57
2022/05/31 00:45:19;;;;;;;;;;;23.50;40.50;;;;;;6325904;27;19931;-54
2022/05/31 00:48:22;;;;;;;;;;;23.50;40.60;;;;;;6327796;27;20053;-53
2022/05/31 00:51:29;;;;;;;;;;;23.50;40.60;;;;;;6345645;27;20337;-55
2022/05/31 00:54:31;;;;;;;;;;;23.10;40.40;;;;;;6344230;27;19935;-57
2022/05/31 00:57:34;;;;;;;;;;;23.50;40.50;;;;;;6350358;27;20183;-54
2022/05/31 01:00:36;;;;;;;;;;;23.00;40.30;;;;;;6336885;27;20473;-54
2022/05/31 01:03:39;;;;;;;;;;;23.20;40.40;;;;;;6327441;27;20171;-53
2022/05/31 01:06:41;;;;;;;;;;;23.50;40.70;;;;;;6326685;27;19963;-57
2022/05/31 01:09:42;;;;;;;;;;;22.90;40.50;;;;;;6343897;27;20172;-58
2022/05/31 01:13:04;;;;;;;;;;;22.80;40.30;;;;;;6348494;27;20368;-54
2022/05/31 01:16:18;;;;;;;;;;;23.20;40.60;;;;;;6346213;27;20184;-55
2022/05/31 01:22:55;;;;;;;;;;;23.20;40.50;;;;;;6344053;27;19930;-56
2022/05/31 01:26:02;;;;;;;;;;;23.30;40.60;;;;;;6348435;27;19931;-55
2022/05/31 01:29:05;;;;;;;;;;;23.00;40.40;;;;;;6347402;27;20214;-53
2022/05/31 01:32:10;;;;;;;;;;;22.80;40.40;;;;;;6349130;27;20779;-56
2022/05/31 01:35:17;;;;;;;;;;;23.20;40.60;;;;;;6329317;27;19984;-55
2022/05/31 01:38:21;;;;;;;;;;;22.90;40.40;;;;;;6353722;27;20190;-55
2022/05/31 01:41:25;;;;;;;;;;;23.10;40.60;;;;;;6324002;27;20350;-56
2022/05/31 01:44:29;;;;;;;;;;;22.90;40.40;;;;;;6326717;27;19931;-53
2022/05/31 01:47:30;;;;;;;;;;;22.90;40.50;;;;;;6346600;27;19970;-54
2022/05/31 01:50:32;;;;;;;;;;;22.90;40.40;;;;;;6325732;27;19934;-57
2022/05/31 01:53:34;;;;;;;;;;;22.90;40.30;;;;;;6347385;27;20026;-54
2022/05/31 01:56:37;;;;;;;;;;;23.00;40.40;;;;;;6345910;27;20727;-56
2022/05/31 01:59:40;;;;;;;;;;;23.30;40.40;;;;;;6346636;27;20003;-56
2022/05/31 02:02:43;;;;;;;;;;;22.70;40.60;;;;;;6340329;27;19975;-56
2022/05/31 02:05:45;;;;;;;;;;;23.10;40.80;;;;;;6344707;27;20541;-52
2022/05/31 02:08:47;;;;;;;;;;;23.30;40.80;;;;;;6348904;27;20377;-55
2022/05/31 02:11:49;;;;;;;;;;;22.80;40.60;;;;;;6344800;27;20786;-54
2022/05/31 02:14:57;;;;;;;;;;;23.20;40.90;;;;;;6343681;27;20022;-56
2022/05/31 02:17:58;;;;;;;;;;;22.90;40.80;;;;;;6345211;27;20222;-55
2022/05/31 02:21:20;;;;;;;;;;;23.10;40.80;;;;;;6344053;27;20238;-55
2022/05/31 02:24:25;;;;;;;;;;;23.10;40.60;;;;;;6344612;27;19935;-54
2022/05/31 02:27:29;;;;;;;;;;;23.20;40.70;;;;;;6346964;27;20284;-53
2022/05/31 02:30:31;;;;;;;;;;;22.90;40.80;;;;;;6347608;27;19934;-53
2022/05/31 02:33:32;;;;;;;;;;;22.90;40.70;;;;;;6346739;27;20341;-54
2022/05/31 02:36:34;;;;;;;;;;;22.90;40.70;;;;;;6345151;27;20176;-57
2022/05/31 02:39:36;;;;;;;;;;;23.00;40.80;;;;;;6349907;27;19926;-54
2022/05/31 02:42:39;;;;;;;;;;;22.90;40.70;;;;;;6330344;27;19931;-53
2022/05/31 02:45:45;;;;;;;;;;;23.30;40.90;;;;;;6342159;27;20357;-55
2022/05/31 02:48:47;;;;;;;;;;;22.90;40.80;;;;;;6340110;27;19927;-54
2022/05/31 02:51:48;;;;;;;;;;;23.20;40.90;;;;;;6343249;27;19953;-54
2022/05/31 02:54:51;;;;;;;;;;;23.10;40.70;;;;;;6342540;27;20071;-56
2022/05/31 02:58:12;;;;;;;;;;;23.50;41.00;;;;;;6331585;27;19927;-55
2022/05/31 03:01:35;;;;;;;;;;;22.90;40.80;;;;;;6335039;27;19970;-55
2022/05/31 03:04:47;;;;;;;;;;;22.90;40.70;;;;;;6345635;27;20070;-52
2022/05/31 03:08:07;;;;;;;;;;;22.90;40.60;;;;;;6342932;27;19927;-53
2022/05/31 03:11:27;;;;;;;;;;;23.10;40.90;;;;;;6345334;27;20589;-54
2022/05/31 03:14:29;;;;;;;;;;;23.00;40.90;;;;;;6340618;27;20044;-55
2022/05/31 03:17:33;;;;;;;;;;;23.30;41.10;;;;;;6322322;27;20033;-54
2022/05/31 03:20:36;;;;;;;;;;;23.30;41.10;;;;;;6348048;27;20361;-57
2022/05/31 03:23:39;;;;;;;;;;;23.10;41.00;;;;;;6345800;27;20548;-56
2022/05/31 03:26:43;;;;;;;;;;;23.10;41.10;;;;;;6345415;27;19962;-56
2022/05/31 03:29:46;;;;;;;;;;;22.50;40.70;;;;;;6344630;27;19931;-57
2022/05/31 03:32:47;;;;;;;;;;;22.70;40.80;;;;;;6345742;27;20342;-58
2022/05/31 03:35:48;;;;;;;;;;;22.80;40.90;;;;;;6345079;27;20063;-57
2022/05/31 03:38:58;;;;;;;;;;;22.80;41.00;;;;;;6347274;27;20159;-55
2022/05/31 03:42:00;;;;;;;;;;;23.00;42.00;;;;;;6342088;27;20910;-54
2022/05/31 03:45:03;;;;;;;;;;;23.10;41.90;;;;;;6343161;27;19940;-56
2022/05/31 03:48:18;;;;;;;;;;;22.70;41.60;;;;;;6341821;27;20302;-58
2022/05/31 03:51:31;;;;;;;;;;;22.80;41.60;;;;;;6326076;27;19927;-58
2022/05/31 03:54:40;;;;;;;;;;;23.20;41.80;;;;;;6345285;27;19939;-58
2022/05/31 03:58:02;;;;;;;;;;;23.10;41.70;;;;;;6344946;27;19931;-56
2022/05/31 04:01:18;;;;;;;;;;;22.70;41.70;;;;;;6341471;27;20856;-55
2022/05/31 04:04:21;;;;;;;;;;;22.90;41.80;;;;;;6340037;27;19931;-59
2022/05/31 04:07:22;;;;;;;;;;;22.90;41.90;;;;;;6342331;27;20311;-55
2022/05/31 04:10:23;;;;;;;;;;;22.80;41.80;;;;;;6341114;27;20408;-57
2022/05/31 04:13:28;;;;;;;;;;;22.60;41.70;;;;;;6341763;27;20042;-59
2022/05/31 04:16:47;;;;;;;;;;;22.70;41.50;;;;;;6337105;27;19977;-56
2022/05/31 04:19:50;;;;;;;;;;;23.00;41.80;;;;;;6337633;27;19970;-58
2022/05/31 04:22:51;;;;;;;;;;;23.10;42.00;;;;;;6342096;27;20645;-55
2022/05/31 04:26:07;;;;;;;;;;;22.50;41.50;;;;;;6329704;27;19931;-58
2022/05/31 04:29:29;;;;;;;;;;;22.90;41.90;;;;;;6339825;27;20381;-56
2022/05/31 04:32:51;;;;;;;;;;;23.10;42.00;;;;;;6336661;27;20691;-57
2022/05/31 04:36:01;;;;;;;;;;;23.00;42.00;;;;;;6334684;27;20359;-58
2022/05/31 04:39:04;;;;;;;;;;;22.70;41.80;;;;;;6337541;27;20462;-58
2022/05/31 04:42:08;;;;;;;;;;;23.30;42.10;;;;;;6322748;27;20360;-56
2022/05/31 04:45:10;;;;;;;;;;;23.00;42.00;;;;;;6334445;27;19927;-56
2022/05/31 04:48:13;;;;;;;;;;;23.00;42.10;;;;;;6333442;27;20128;-56
2022/05/31 04:51:15;;;;;;;;;;;23.10;42.00;;;;;;6338518;27;20304;-59
2022/05/31 04:54:30;;;;;;;;;;;23.00;41.90;;;;;;6317481;27;19927;-56
2022/05/31 04:57:43;;;;;;;;;;;22.80;42.10;;;;;;6341935;27;19938;-56
2022/05/31 05:00:48;;;;;;;;;;;22.90;42.10;;;;;;6339818;27;20409;-57
2022/05/31 05:03:50;;;;;;;;;;;23.20;42.20;;;;;;6343138;27;19995;-55
2022/05/31 05:06:52;;;;;;;;;;;22.70;42.00;;;;;;6343400;27;19923;-58
2022/05/31 05:09:56;;;;;;;;;;;22.80;42.10;;;;;;6352689;27;20045;-56
2022/05/31 05:13:07;;;;;;;;;;;22.80;41.70;;;;;;6353457;27;20674;-58
2022/05/31 05:16:29;;;;;;;;;;;22.90;42.20;;;;;;6352951;27;20807;-57
2022/05/31 05:19:32;;;;;;;;;;;22.90;42.20;;;;;;6354598;27;19957;-58
2022/05/31 05:22:34;;;;;;;;;;;23.20;42.20;;;;;;6355819;27;20735;-56
2022/05/31 05:25:38;;;;;;;;;;;23.20;42.00;;;;;;6351515;27;20487;-57
2022/05/31 05:32:08;;;;;;;;;;;22.60;42.10;;;;;;6328183;27;20235;-58
2022/05/31 05:35:19;;;;;;;;;;;22.80;42.30;;;;;;6335911;27;20046;-55
2022/05/31 05:38:29;;;;;;;;;;;22.60;41.90;;;;;;6342347;27;19930;-56
2022/05/31 05:41:49;;;;;;;;;;;22.60;42.20;;;;;;6341758;27;19939;-56
2022/05/31 05:45:11;;;;;;;;;;;22.90;42.40;;;;;;6339859;27;20099;-57
2022/05/31 05:48:15;;;;;;;;;;;22.70;42.00;;;;;;6343354;27;19934;-54
2022/05/31 05:51:19;;;;;;;;;;;22.70;42.10;;;;;;6325217;27;20341;-58
2022/05/31 05:54:37;;;;;;;;;;;23.00;42.30;;;;;;6330568;27;20161;-58
2022/05/31 05:57:58;;;;;;;;;;;22.50;42.00;;;;;;6334524;27;19923;-56
2022/05/31 06:01:20;;;;;;;;;;;23.00;42.20;;;;;;6341574;27;19930;-56
2022/05/31 06:04:34;;;;;;;;;;;22.80;42.60;;;;;;6317152;27;20651;-58
2022/05/31 06:07:38;;;;;;;;;;;23.40;42.40;;;;;;6342124;27;19933;-54
2022/05/31 06:10:40;;;;;;;;;;;22.70;42.00;;;;;;6334332;27;19931;-55
2022/05/31 06:13:43;;;;;;;;;;;23.30;42.30;;;;;;6320179;27;19970;-57
2022/05/31 06:16:46;;;;;;;;;;;22.90;42.10;;;;;;6336443;27;19930;-59
2022/05/31 06:19:49;;;;;;;;;;;23.10;42.70;;;;;;6318348;27;19935;-58
2022/05/31 06:22:50;;;;;;;;;;;23.10;42.30;;;;;;6301864;27;20157;-58
2022/05/31 06:25:53;;;;;;;;;;;23.20;42.30;;;;;;6326604;27;19954;-56
2022/05/31 06:29:06;;;;;;;;;;;22.70;41.90;;;;;;6300695;27;19964;-59
2022/05/31 06:32:08;;;;;;;;;;;23.00;42.20;;;;;;6312785;27;20065;-58
2022/05/31 06:35:14;;;;;;;;;;;22.70;42.00;;;;;;6288761;27;20202;-59
2022/05/31 06:38:24;;;;;;;;;;;23.00;42.10;;;;;;6303129;27;20907;-57
2022/05/31 06:41:25;;;;;;;;;;;22.80;42.20;;;;;;6304063;27;20877;-56
2022/05/31 06:44:49;;;;;;;;;;;23.10;42.50;;;;;;6284255;27;19930;-62
2022/05/31 06:48:11;;;;;;;;;;;23.10;42.60;;;;;;6267197;27;19930;-60
2022/05/31 06:58:37;;;;;;;;;;;22.80;42.20;;;;;;6182188;27;19941;-58
2022/05/31 07:01:44;;;;;;;;;;;23.00;42.60;;;;;;6130191;27;20050;-56
2022/05/31 07:04:46;;;;;;;;;;;23.10;42.60;;;;;;6192901;27;20695;-58
2022/05/31 07:07:52;;;;;;;;;;;22.90;42.60;;;;;;6164959;27;19938;-56
2022/05/31 07:11:07;;;;;;;;;;;23.00;41.90;;;;;;6077364;27;20053;-59
2022/05/31 07:14:28;;;;;;;;;;;23.00;42.60;;;;;;6119374;27;19937;-56
2022/05/31 07:17:49;;;;;;;;;;;22.70;42.60;;;;;;6113061;27;20679;-56
2022/05/31 07:20:51;;;;;;;;;;;23.10;42.90;;;;;;6072829;27;23505;-57
2022/05/31 07:23:53;;;;;;;;;;;23.00;42.90;;;;;;6112992;27;19930;-53
2022/05/31 07:26:56;;;;;;;;;;;23.00;42.80;;;;;;6050402;27;20010;-59
2022/05/31 07:29:58;;;;;;;;;;;22.80;42.70;;;;;;6031572;27;19930;-58
2022/05/31 07:33:00;;;;;;;;;;;22.70;42.60;;;;;;6056829;27;19937;-53
2022/05/31 07:40:15;;;;;;;;;;;23.00;41.70;;;;;;6069291;27;21579;-58
2022/05/31 07:43:17;;;;;;;;;;;23.40;42.90;;;;;;6095699;27;20018;-54
2022/05/31 07:46:19;;;;;;;;;;;22.90;42.70;;;;;;6073076;27;20419;-59
2022/05/31 07:49:22;;;;;;;;;;;23.10;42.70;;;;;;6077518;27;20505;-57
2022/05/31 07:52:30;;;;;;;;;;;22.90;42.60;;;;;;6073794;27;19935;-59
2022/05/31 07:55:55;;;;;;;;;;;22.40;42.30;;;;;;6111346;27;24328;-56
2022/05/31 07:59:08;;;;;;;;;;;23.10;42.40;;;;;;6099399;27;20649;-58
2022/05/31 08:02:29;;;;;;;;;;;23.30;42.70;;;;;;5984983;27;21600;-58
2022/05/31 08:05:31;;;;;;;;;;;23.10;42.30;;;;;;6011659;27;23019;-58
2022/05/31 08:08:34;;;;;;;;;;;23.60;42.30;;;;;;6036737;27;20006;-58
2022/05/31 08:11:38;;;;;;;;;;;23.10;42.30;;;;;;6053101;27;19938;-58
2022/05/31 08:14:39;;;;;;;;;;;23.00;42.20;;;;;;6071262;27;19935;-56
2022/05/31 08:17:42;;;;;;;;;;;23.20;42.40;;;;;;6097763;27;19931;-59
2022/05/31 08:20:44;;;;;;;;;;;22.80;42.10;;;;;;6116087;27;19931;-58
2022/05/31 08:23:45;;;;;;;;;;;23.30;42.40;;;;;;6120604;27;19935;-55
2022/05/31 08:26:47;;;;;;;;;;;23.20;42.20;;;;;;6120005;27;19930;-59
2022/05/31 08:29:49;;;;;;;;;;;23.00;41.80;;;;;;6130227;27;19931;-59
2022/05/31 08:32:50;;;;;;;;;;;23.10;42.00;;;;;;6098764;27;19931;-59
2022/05/31 08:35:52;;;;;;;;;;;23.00;41.70;;;;;;6069177;27;19937;-59
2022/05/31 08:39:04;;;;;;;;;;;23.10;42.10;;;;;;6061292;27;19937;-60
2022/05/31 08:42:09;;;;;;;;;;;23.40;42.20;;;;;;6117798;27;20045;-58
2022/05/31 08:45:13;;;;;;;;;;;23.50;42.00;;;;;;6123390;27;19938;-59
2022/05/31 08:48:25;;;;;;;;;;;23.40;41.50;;;;;;6088647;27;19934;-56
2022/05/31 08:58:08;;;;;;;;;;;23.00;41.70;;;;;;6093628;27;20941;-61
2022/05/31 09:01:11;;;;;;;;;;;23.40;41.80;;;;;;6038960;27;19931;-55
2022/05/31 09:04:19;;;;;;;;;;;23.00;41.50;;;;;;6048232;27;20064;-60
2022/05/31 09:07:22;;;;;;;;;;;23.10;41.70;;;;;;6037844;27;19931;-59
2022/05/31 09:10:34;;;;;;;;;;;23.50;41.80;;;;;;6059742;27;19953;-61
2022/05/31 09:17:35;;;;;;;;;;;23.50;41.70;;;;;;6075047;27;20314;-60
2022/05/31 09:20:39;;;;;;;;;;;23.40;41.60;;;;;;6079380;27;19931;-60
2022/05/31 09:23:41;;;;;;;;;;;23.50;41.60;;;;;;6111733;27;19931;-61
2022/05/31 09:26:51;;;;;;;;;;;23.20;41.50;;;;;;6071871;27;19931;-61
2022/05/31 09:30:01;;;;;;;;;;;23.60;41.60;;;;;;6078656;27;21419;-60
2022/05/31 09:33:09;;;;;;;;;;;23.40;41.40;;;;;;6100716;27;20016;-62
2022/05/31 09:36:14;;;;;;;;;;;23.60;41.40;;;;;;6043042;27;19931;-59
2022/05/31 09:39:20;;;;;;;;;;;23.50;41.50;;;;;;6109652;27;19931;-62
2022/05/31 09:42:23;;;;;;;;;;;23.70;41.40;;;;;;6083429;27;20856;-59
2022/05/31 09:45:26;;;;;;;;;;;24.20;41.80;;;;;;6112729;27;21171;-57
2022/05/31 09:48:28;;;;;;;;;;;23.70;41.50;;;;;;6097056;27;19930;-57
2022/05/31 09:51:32;;;;;;;;;;;23.30;41.30;;;;;;6118024;27;20014;-57
2022/05/31 09:59:02;;;;;;;;;;;23.80;41.20;;;;;;6120694;27;19937;-61
2022/05/31 10:02:20;;;;;;;;;;;23.70;41.40;;;;;;6086838;27;20057;-61
2022/05/31 10:05:23;;;;;;;;;;;23.80;41.30;;;;;;6100458;27;19931;-60
2022/05/31 10:08:30;;;;;;;;;;;23.80;41.50;;;;;;6077562;27;19937;-60
2022/05/31 10:11:33;;;;;;;;;;;23.80;41.30;;;;;;6109746;27;19939;-61
2022/05/31 10:14:36;;;;;;;;;;;23.90;41.30;;;;;;6103503;27;19931;-60
2022/05/31 10:17:41;;;;;;;;;;;23.90;41.30;;;;;;6117975;27;19938;-60
2022/05/31 10:20:52;;;;;;;;;;;23.90;41.10;;;;;;6101630;27;21155;-61
2022/05/31 10:23:53;;;;;;;;;;;23.70;40.80;;;;;;6140177;27;19958;-58
2022/05/31 10:27:10;;;;;;;;;;;23.60;40.90;;;;;;6139013;27;19974;-60
2022/05/31 10:30:32;;;;;;;;;;;23.60;40.70;;;;;;6148108;27;19930;-56
2022/05/31 10:33:39;;;;;;;;;;;23.90;41.00;;;;;;6141862;27;21597;-58
2022/05/31 10:36:48;;;;;;;;;;;23.50;40.80;;;;;;6107490;27;19967;-57
2022/05/31 10:39:59;;;;;;;;;;;24.00;41.00;;;;;;6135182;27;21812;-58
2022/05/31 10:43:06;;;;;;;;;;;23.60;40.80;;;;;;6162673;27;19938;-57
2022/05/31 10:46:11;;;;;;;;;;;24.10;41.00;;;;;;6193471;27;21450;-59
2022/05/31 10:49:15;;;;;;;;;;;24.10;41.00;;;;;;6200175;27;19931;-58
2022/05/31 10:52:20;;;;;;;;;;;24.00;40.90;;;;;;6200154;27;19931;-55
2022/05/31 10:55:30;;;;;;;;;;;23.90;40.80;;;;;;6190159;27;19930;-56
2022/05/31 10:58:41;;;;;;;;;;;24.10;40.80;;;;;;6171537;27;19970;-58
2022/05/31 11:01:52;;;;;;;;;;;23.80;41.30;;;;;;6222994;27;21427;-57
2022/05/31 11:04:57;;;;;;;;;;;24.00;40.20;;;;;;6185214;27;20626;-57
2022/05/31 11:11:29;;;;;;;;;;;24.00;40.70;;;;;;6182587;27;19931;-57
2022/05/31 11:14:36;;;;;;;;;;;23.90;40.70;;;;;;6183366;27;19970;-57
2022/05/31 11:17:47;;;;;;;;;;;23.90;40.70;;;;;;6193873;27;20049;-56
2022/05/31 11:20:52;;;;;;;;;;;24.00;40.60;;;;;;6193390;27;19931;-58
2022/05/31 11:24:03;;;;;;;;;;;23.80;40.40;;;;;;6215143;27;20010;-57
2022/05/31 11:27:16;;;;;;;;;;;24.00;40.60;;;;;;6166616;27;19931;-60
2022/05/31 11:30:20;;;;;;;;;;;24.20;40.70;;;;;;6188286;27;19934;-57
2022/05/31 11:33:32;;;;;;;;;;;23.90;40.50;;;;;;6204195;27;19931;-56
2022/05/31 11:36:51;;;;;;;;;;;24.20;40.60;;;;;;6140959;27;20007;-56
2022/05/31 11:40:03;;;;;;;;;;;23.60;40.30;;;;;;6165591;27;19949;-58
2022/05/31 11:43:15;;;;;;;;;;;24.10;40.60;;;;;;6156689;27;20948;-57
2022/05/31 11:46:21;;;;;;;;;;;24.30;40.60;;;;;;6107869;27;20053;-57
2022/05/31 11:49:28;;;;;;;;;;;24.00;40.40;;;;;;6149984;27;21662;-56
2022/05/31 11:52:36;;;;;;;;;;;24.50;40.70;;;;;;6153387;27;20045;-56
2022/05/31 11:55:41;;;;;;;;;;;24.30;40.50;;;;;;6104474;27;19937;-57
2022/05/31 11:58:46;;;;;;;;;;;23.90;40.30;;;;;;6102805;27;20017;-58
2022/05/31 12:01:49;;;;;;;;;;;23.50;40.10;;;;;;6068324;27;19931;-58
2022/05/31 12:04:54;;;;;;;;;;;24.10;40.40;;;;;;6058535;27;21072;-55
2022/05/31 12:08:01;;;;;;;;;;;24.20;40.10;;;;;;6024505;27;21791;-54
2022/05/31 12:11:06;;;;;;;;;;;24.00;40.70;;;;;;6016801;27;19973;-55
2022/05/31 12:17:41;;;;;;;;;;;24.10;40.30;;;;;;6018597;27;20036;-56
2022/05/31 12:20:48;;;;;;;;;;;24.20;40.60;;;;;;6046235;27;21014;-55
2022/05/31 12:23:53;;;;;;;;;;;24.30;40.30;;;;;;6021367;27;20085;-55
2022/05/31 12:26:56;;;;;;;;;;;23.90;40.20;;;;;;6046275;27;23503;-57
2022/05/31 12:30:00;;;;;;;;;;;23.80;40.20;;;;;;6015143;27;19930;-56
2022/05/31 12:33:01;;;;;;;;;;;23.80;39.90;;;;;;6082145;27;20636;-55
2022/05/31 12:36:04;;;;;;;;;;;24.00;40.10;;;;;;6074436;27;19938;-51
2022/05/31 12:39:08;;;;;;;;;;;24.00;40.00;;;;;;6049331;27;20018;-53
2022/05/31 12:42:24;;;;;;;;;;;24.00;40.00;;;;;;6085939;27;19931;-58
2022/05/31 12:45:38;;;;;;;;;;;24.20;40.20;;;;;;6072857;27;22635;-59
2022/05/31 12:48:47;;;;;;;;;;;24.20;40.70;;;;;;6087595;27;19938;-56
2022/05/31 12:52:03;;;;;;;;;;;24.30;40.10;;;;;;6081711;27;20100;-60
2022/05/31 12:55:06;;;;;;;;;;;24.00;40.00;;;;;;6114540;27;20015;-59
2022/05/31 12:58:30;;;;;;;;;;;24.20;40.20;;;;;;6078197;27;19938;-60
2022/05/31 13:01:32;;;;;;;;;;;24.30;40.20;;;;;;6083380;27;20185;-60
2022/05/31 13:04:50;;;;;;;;;;;24.10;40.10;;;;;;6083121;27;22323;-59
2022/05/31 13:08:09;;;;;;;;;;;24.00;40.00;;;;;;6039405;27;21306;-57
2022/05/31 13:21:03;;;;;;;;;;;24.20;40.10;;;;;;6062039;27;20045;-55
2022/05/31 13:24:07;;;;;;;;;;;23.80;40.00;;;;;;6082973;27;19931;-59
2022/05/31 13:27:10;;;;;;;;;;;23.90;39.80;;;;;;6049829;27;20002;-61
2022/05/31 13:30:13;;;;;;;;;;;24.20;40.00;;;;;;6067032;27;19937;-57
2022/05/31 13:33:17;;;;;;;;;;;24.10;40.20;;;;;;6084133;27;19931;-56
2022/05/31 13:36:22;;;;;;;;;;;24.00;40.00;;;;;;6043101;27;19989;-57
2022/05/31 13:39:24;;;;;;;;;;;24.40;40.20;;;;;;6060587;27;20018;-55
2022/05/31 13:42:28;;;;;;;;;;;23.80;39.90;;;;;;6074152;27;19941;-57
2022/05/31 13:45:30;;;;;;;;;;;24.30;40.10;;;;;;6060367;27;19962;-54
2022/05/31 13:48:34;;;;;;;;;;;24.30;40.10;;;;;;6046103;27;19934;-53
2022/05/31 13:51:35;;;;;;;;;;;24.30;40.10;;;;;;6074099;27;19937;-54
2022/05/31 13:54:38;;;;;;;;;;;23.90;39.90;;;;;;6039845;27;19937;-57
2022/05/31 13:57:49;;;;;;;;;;;24.30;40.10;;;;;;6073570;27;19966;-55
2022/05/31 14:00:50;;;;;;;;;;;24.00;40.10;;;;;;6022909;27;19952;-53
2022/05/31 14:03:53;;;;;;;;;;;24.20;40.10;;;;;;6056948;27;19989;-54
2022/05/31 14:06:59;;;;;;;;;;;23.90;40.00;;;;;;6054857;27;20199;-54
2022/05/31 14:10:03;;;;;;;;;;;23.70;39.90;;;;;;6026303;27;19930;-54
2022/05/31 14:13:09;;;;;;;;;;;24.30;40.20;;;;;;6056887;27;19931;-51
2022/05/31 14:16:12;;;;;;;;;;;23.90;39.90;;;;;;6035179;27;21439;-51
2022/05/31 14:19:16;;;;;;;;;;;23.90;40.60;;;;;;6073529;27;20073;-57
2022/05/31 14:22:19;;;;;;;;;;;24.20;40.20;;;;;;6027610;27;19931;-52
2022/05/31 14:25:24;;;;;;;;;;;23.70;39.90;;;;;;6020472;27;20441;-53
2022/05/31 14:28:26;;;;;;;;;;;24.20;40.20;;;;;;6040691;27;19989;-55
2022/05/31 14:31:28;;;;;;;;;;;23.80;39.80;;;;;;6067462;27;20045;-56
2022/05/31 14:34:30;;;;;;;;;;;24.20;40.10;;;;;;6055709;27;19937;-55
2022/05/31 14:37:38;;;;;;;;;;;23.80;39.80;;;;;;6039578;27;19948;-55
2022/05/31 14:40:40;;;;;;;;;;;24.00;39.80;;;;;;6068629;27;19938;-57
2022/05/31 14:43:51;;;;;;;;;;;24.10;39.90;;;;;;6059228;27;20056;-57
2022/05/31 14:47:04;;;;;;;;;;;23.80;39.70;;;;;;6050490;27;19931;-57
2022/05/31 14:50:12;;;;;;;;;;;24.10;39.80;;;;;;6051980;27;19931;-58
2022/05/31 14:53:15;;;;;;;;;;;23.90;39.80;;;;;;6033782;27;19931;-55
2022/05/31 14:56:19;;;;;;;;;;;23.70;39.70;;;;;;6013880;27;20069;-57
2022/05/31 14:59:24;;;;;;;;;;;24.00;39.70;;;;;;6064753;27;21950;-57
2022/05/31 15:02:27;;;;;;;;;;;24.40;39.80;;;;;;6043760;27;19931;-57
2022/05/31 15:05:29;;;;;;;;;;;24.00;39.90;;;;;;6064188;27;19931;-57
2022/05/31 15:08:33;;;;;;;;;;;23.80;39.60;;;;;;6083014;27;19970;-56
2022/05/31 15:21:21;;;;;;;;;;;23.70;39.40;;;;;;6102987;27;19931;-55
2022/05/31 15:24:26;;;;;;;;;;;24.00;39.60;;;;;;6071051;27;19968;-54
2022/05/31 15:27:29;;;;;;;;;;;24.20;39.70;;;;;;6094707;27;19931;-56
2022/05/31 15:30:31;;;;;;;;;;;24.20;39.60;;;;;;6066975;27;19931;-55
2022/05/31 15:33:52;;;;;;;;;;;23.90;39.50;;;;;;6065252;27;19931;-54
2022/05/31 15:36:57;;;;;;;;;;;23.80;39.40;;;;;;6078599;27;19930;-54
2022/05/31 15:40:01;;;;;;;;;;;24.20;39.70;;;;;;6145481;27;20014;-55
2022/05/31 15:43:02;;;;;;;;;;;24.30;39.70;;;;;;6092264;27;21389;-55
2022/05/31 15:46:05;;;;;;;;;;;24.30;39.70;;;;;;6115262;27;19964;-52
2022/05/31 15:49:08;;;;;;;;;;;24.40;39.70;;;;;;6154682;27;19931;-54
2022/05/31 15:52:14;;;;;;;;;;;24.30;39.70;;;;;;6148428;27;20478;-57
2022/05/31 15:55:16;;;;;;;;;;;24.30;39.60;;;;;;6143076;27;19948;-54
2022/05/31 15:58:17;;;;;;;;;;;24.00;39.50;;;;;;6145467;27;21248;-56
2022/05/31 16:01:19;;;;;;;;;;;24.20;39.50;;;;;;6149197;27;19931;-55
2022/05/31 16:04:21;;;;;;;;;;;24.40;39.60;;;;;;6143496;27;19935;-53
2022/05/31 16:07:25;;;;;;;;;;;24.00;39.30;;;;;;6166933;27;19938;-55
2022/05/31 16:10:26;;;;;;;;;;;24.40;39.50;;;;;;6152988;27;19934;-53
2022/05/31 16:13:27;;;;;;;;;;;24.30;39.60;;;;;;6164212;27;19981;-55
2022/05/31 16:16:29;;;;;;;;;;;24.50;39.50;;;;;;6190529;27;20456;-55
2022/05/31 16:19:32;;;;;;;;;;;24.10;39.20;;;;;;6200249;27;19938;-57
2022/05/31 16:22:38;;;;;;;;;;;24.20;39.40;;;;;;6180571;27;19931;-53
2022/05/31 16:25:39;;;;;;;;;;;24.00;39.40;;;;;;6211765;27;19967;-58
2022/05/31 16:28:41;;;;;;;;;;;24.40;39.70;;;;;;6230965;27;21286;-56
2022/05/31 16:31:46;;;;;;;;;;;24.40;39.50;;;;;;6224047;27;19930;-57
2022/05/31 16:34:47;;;;;;;;;;;24.40;39.40;;;;;;6235410;27;20519;-57
2022/05/31 16:44:19;;;;;;;;;;;24.20;39.30;;;;;;6290660;27;19969;-57
2022/05/31 16:47:21;;;;;;;;;;;24.50;39.60;;;;;;6288135;27;19982;-56
2022/05/31 16:50:23;;;;;;;;;;;24.10;39.20;;;;;;6305562;27;19931;-57
2022/05/31 16:53:25;;;;;;;;;;;24.40;39.40;;;;;;6303359;27;19934;-57
2022/05/31 16:56:29;;;;;;;;;;;24.00;39.10;;;;;;6295088;27;20801;-55
2022/05/31 16:59:32;;;;;;;;;;;24.80;39.40;;;;;;6296033;27;19931;-56
2022/05/31 17:02:34;;;;;;;;;;;24.30;39.30;;;;;;6308502;27;20520;-58
2022/05/31 17:05:36;;;;;;;;;;;24.90;39.60;;;;;;6314672;27;20815;-57
2022/05/31 17:15:10;;;;;;;;;;;24.50;39.30;;;;;;6312502;27;20049;-58
2022/05/31 17:18:12;;;;;;;;;;;24.40;39.30;;;;;;6322297;27;19930;-57
2022/05/31 17:21:14;;;;;;;;;;;24.20;39.20;;;;;;6315912;27;19927;-63
2022/05/31 17:24:16;;;;;;;;;;;24.50;39.30;;;;;;6324855;27;19933;-58
2022/05/31 17:27:17;;;;;;;;;;;24.60;39.40;;;;;;6329808;27;19999;-64
2022/05/31 17:30:19;;;;;;;;;;;24.30;39.20;;;;;;6329375;27;19926;-58
2022/05/31 17:33:27;;;;;;;;;;;24.10;39.00;;;;;;6317369;27;19958;-58
2022/05/31 17:36:28;;;;;;;;;;;24.40;39.20;;;;;;6332224;27;20053;-56
2022/05/31 17:39:30;;;;;;;;;;;24.20;39.10;;;;;;6321597;27;19937;-56
2022/05/31 17:42:33;;;;;;;;;;;24.50;39.30;;;;;;6323197;27;19926;-55
2022/05/31 17:45:34;;;;;;;;;;;24.10;39.00;;;;;;6319537;27;19937;-58
2022/05/31 17:48:36;;;;;;;;;;;24.40;39.40;;;;;;6322606;27;20680;-58
2022/05/31 17:51:39;;;;;;;;;;;24.40;39.20;;;;;;6335753;27;19937;-56
2022/05/31 17:54:42;;;;;;;;;;;24.40;39.20;;;;;;6341888;27;20054;-54
2022/05/31 17:57:43;;;;;;;;;;;24.40;39.30;;;;;;6337106;27;19974;-54
2022/05/31 18:00:45;;;;;;;;;;;24.20;39.20;;;;;;6341581;27;20559;-58
2022/05/31 18:03:47;;;;;;;;;;;24.30;39.30;;;;;;6336527;27;19973;-55
2022/05/31 18:06:48;;;;;;;;;;;24.40;39.30;;;;;;6339360;27;19938;-54
2022/05/31 18:09:49;;;;;;;;;;;24.40;39.30;;;;;;6340045;27;19927;-56
2022/05/31 18:12:51;;;;;;;;;;;24.40;39.30;;;;;;6340301;27;19970;-61
2022/05/31 18:15:53;;;;;;;;;;;24.20;39.30;;;;;;6330125;27;19982;-54
2022/05/31 18:18:56;;;;;;;;;;;24.30;39.20;;;;;;6343158;27;21120;-54
2022/05/31 18:21:57;;;;;;;;;;;24.30;39.30;;;;;;6342583;27;19930;-57
2022/05/31 18:25:00;;;;;;;;;;;24.30;39.30;;;;;;6346571;27;19991;-52
2022/05/31 18:31:20;;;;;;;;;;;24.50;39.30;;;;;;6344254;27;20084;-53
2022/05/31 18:34:22;;;;;;;;;;;24.50;39.30;;;;;;6318987;27;20042;-58
2022/05/31 18:40:40;;;;;;;;;;;24.40;39.10;;;;;;6341939;27;20101;-57
2022/05/31 18:43:41;;;;;;;;;;;24.50;39.20;;;;;;6341617;27;20016;-55
2022/05/31 18:46:43;;;;;;;;;;;24.20;39.10;;;;;;6336981;27;19926;-58
2022/05/31 18:49:45;;;;;;;;;;;24.70;39.30;;;;;;6335119;27;20036;-57
2022/05/31 18:52:47;;;;;;;;;;;24.50;39.90;;;;;;6335551;27;19999;-53
2022/05/31 18:55:49;;;;;;;;;;;24.40;39.30;;;;;;6341725;27;19922;-57
2022/05/31 18:58:50;;;;;;;;;;;24.30;39.10;;;;;;6323682;27;19927;-54
2022/05/31 19:01:58;;;;;;;;;;;24.60;39.50;;;;;;6341173;27;19931;-56
2022/05/31 19:05:02;;;;;;;;;;;24.30;39.20;;;;;;6322735;27;21728;-55
2022/05/31 19:08:04;;;;;;;;;;;24.40;39.30;;;;;;6335234;27;19934;-57
2022/05/31 19:11:05;;;;;;;;;;;24.30;39.20;;;;;;6332352;27;19958;-57
2022/05/31 19:14:08;;;;;;;;;;;24.40;39.20;;;;;;6334460;27;19930;-58
2022/05/31 19:17:11;;;;;;;;;;;24.20;39.20;;;;;;6338574;27;19933;-55
2022/05/31 19:20:14;;;;;;;;;;;24.40;39.30;;;;;;6343265;27;19931;-58